• Join FlightAware (Why Join?)
  • Login
  • US Flag 
01:21PM EDT


 

Airport Tracker/Info


-or-


 

Live Flight TrackerFlight Track Log ✈ AWE1940 ✈ 12-May-2013 ✈ KIAH - KCLT

Flight Track Log - Related Links

Times and Time Zones

All times are in EDT time to prevent confusion due to time zone crossing. See the AWE1940 flight status page for this flight to view local times or setup timezone preferences in your user account.

Time Position Orientation Groundspeed Altitude Reporting Facility
EDT Latitude Longitude Course Direction KTS MPH feet Rate Location/Type
06:39PM 29.9547 -95.3372 90° East 179 206 1,100  Level Houston Center
06:40PM 29.9289 -95.2608 111° Southeast 226 260 3,700 1,500 Climbing Houston Center
06:41PM 29.9834 -94.9009 90° East  Level FlightAware Approximate
06:41PM 29.9181 -95.2197 107° East 224 258 4,000  Level Houston Center
06:41PM 29.9097 -95.1883 107° East 270 311 4,000 1,620 Level Houston Center
06:42PM 29.9834 -94.7568 90° East  Level FlightAware Approximate
06:42PM 29.9136 -95.1364 85° East 264 304 5,700  Level Houston Center
06:42PM 29.9158 -95.0983 86° East 267 307 7,300 3,060 Climbing Houston Center
06:43PM 29.9833 -94.6127 90° East  Level FlightAware Approximate
06:43PM 29.9219 -95.0517 81° East 264 304 8,900  Level Houston Center
06:43PM 29.9261 -95.0056 84° East 275 316 10,300 2,640 Climbing Houston Center
06:44PM 29.9833 -94.4686 90° East  Level FlightAware Approximate
06:44PM 29.9336 -94.9381 83° East 295 339 11,600  Level Houston Center
06:45PM 29.9447 -94.8247 84° East 347 399 13,400 1,980 Climbing Houston Center
06:46PM 29.9603 -94.7000 82° East 387 445 15,800 2,040 Climbing Houston Center
06:47PM 29.9767 -94.5708 82° East 404 465 17,700 2,040 Climbing Houston Center
06:48PM 29.9911 -94.4369 83° East 417 480 20,000 2,040 Climbing Houston Center
06:49PM 30.0092 -94.2975 81° East 434 499 22,000 1,680 Climbing Houston Center
06:50PM 30.0250 -94.1586 82° East 439 505 23,500 1,680 Climbing Houston Center
06:51PM 30.0458 -93.9817 82° East 460 529 25,500 1,500 Climbing Houston Center
06:52PM 30.0628 -93.8311 83° East 473 544 26,600 1,140 Climbing Houston Center
06:53PM 30.0808 -93.6739 82° East 493 567 27,900 900 Climbing Houston Center
06:54PM 30.0983 -93.5128 83° East 512 589 28,500 840 Climbing Houston Center
06:55PM 30.1172 -93.3444 83° East 535 616 29,700 1,500 Climbing Houston Center
06:56PM 30.1386 -93.1456 83° East 527 606 31,700 1,380 Climbing Houston Center
06:57PM 30.1925 -92.9906 68° East 527 606 32,600 540 Climbing Houston Center
06:58PM 30.2606 -92.8414 62° Northeast 528 608 32,900 120 Climbing Houston Center
06:59PM 30.3275 -92.6908 63° Northeast 530 610 32,900  Level Houston Center
07:00PM 30.3950 -92.5392 63° Northeast 531 611 32,900  Level Houston Center
07:01PM 30.4731 -92.3644 63° Northeast 529 609 32,900  Level Houston Center
07:02PM 30.5397 -92.2142 63° Northeast 528 608 32,900  Level Houston Center
07:03PM 30.6061 -92.0647 63° Northeast 526 605 32,900  Level Houston Center
07:04PM 30.6717 -91.9139 63° Northeast 526 605 32,900  Level Houston Center
07:05PM 30.7389 -91.7636 62° Northeast 526 605 32,900  Level Houston Center
07:06PM 30.8178 -91.5819 63° Northeast 528 608 32,900  Level Houston Center
07:07PM 30.8839 -91.4306 63° Northeast 527 606 32,900  Level Houston Center
07:09PM 30.9492 -91.2783 63° Northeast 528 608 32,900  Level Houston Center
07:10PM 31.0178 -91.1164 64° Northeast 532 612 32,900  Level Houston Center
07:11PM 31.0847 -90.9617 63° Northeast 534 615 32,900  Level Houston Center
07:12PM 31.1508 -90.8044 64° Northeast 537 618 32,900  Level Houston Center
07:13PM 31.2178 -90.6483 63° Northeast 536 617 32,900  Level Houston Center
07:14PM 31.2839 -90.4906 64° Northeast 539 620 32,900  Level Houston Center
07:15PM 31.3503 -90.3333 64° Northeast 538 619 32,900  Level Houston Center
07:16PM 31.4292 -90.1419 64° Northeast 542 624 32,900  Level Houston Center
07:17PM 31.4953 -89.9847 64° Northeast 538 619 32,900  Level Houston Center
07:18PM 31.5622 -89.8261 64° Northeast 541 623 32,900  Level Houston Center
07:19PM 31.6267 -89.6667 65° Northeast 540 621 32,900  Level Houston Center
07:20PM 31.6933 -89.5072 64° Northeast 539 620 32,900  Level Houston Center
07:21PM 31.7558 -89.3486 65° Northeast 536 617 32,900  Level Houston Center
07:21PM 31.7986 -89.2525 62° Northeast 529 609 32,900  Level Memphis Center
07:22PM 31.8556 -89.1028 66° East 517 595 32,900  Level Memphis Center
07:23PM 31.9228 -88.9450 63° Northeast 517 595 32,900  Level Memphis Center
07:24PM 31.9897 -88.7825 64° Northeast 529 609 32,900  Level Memphis Center
07:26PM 32.0844 -88.5383 65° Northeast 539 620 32,900  Level Houston Center
07:27PM 32.1297 -88.4336 63° Northeast 540 621 32,900  Level Atlanta Center
07:28PM 32.1936 -88.2750 65° Northeast 540 621 32,900  Level Atlanta Center
07:29PM 32.2575 -88.1133 65° Northeast 540 621 32,900  Level Atlanta Center
07:30PM 32.3233 -87.9517 64° Northeast 540 621 32,900  Level Atlanta Center
07:31PM 32.3867 -87.7922 65° Northeast 540 621 32,900  Level Atlanta Center
07:32PM 32.4500 -87.6275 65° Northeast 540 621 32,900  Level Atlanta Center
07:33PM 32.5111 -87.4600 67° East 545 627 32,900  Level Atlanta Center
07:34PM 32.5739 -87.2972 65° Northeast 545 627 32,900  Level Atlanta Center
07:35PM 32.6344 -87.1344 66° East 545 627 32,900  Level Atlanta Center
07:36PM 32.7011 -86.9664 65° Northeast 545 627 32,900  Level Atlanta Center
07:37PM 32.7572 -86.8028 68° East 545 627 32,900  Level Atlanta Center
07:38PM 32.8153 -86.6339 68° East 542 624 32,900 -300 Level Atlanta Center
07:39PM 32.8728 -86.4675 68° East 542 624 32,300 -780 Descending Atlanta Center
07:40PM 32.9281 -86.3033 68° East 542 624 31,400 -720 Descending Atlanta Center
07:41PM 32.9853 -86.1364 68° East 531 611 30,900 -300 Descending Atlanta Center
07:42PM 33.0422 -85.9717 68° East 531 611 30,900  Level Atlanta Center
07:43PM 33.0969 -85.8019 69° East 531 611 30,900  Level Atlanta Center
07:44PM 33.1514 -85.6367 68° East 531 611 30,900  Level Atlanta Center
07:45PM 33.2033 -85.4911 67° East 531 611 30,900  Level Atlanta Center
07:46PM 33.2639 -85.3083 68° East 531 611 30,900  Level Atlanta Center
07:47PM 33.3197 -85.1375 69° East 537 618 30,900  Level Atlanta Center
07:48PM 33.3797 -84.9542 69° East 537 618 30,900  Level Atlanta Center
07:49PM 33.4331 -84.7856 69° East 537 618 30,900  Level Atlanta Center
07:50PM 33.4881 -84.6142 69° East 542 624 30,900 -240 Level Atlanta Center
07:51PM 33.5411 -84.4475 69° East 542 624 30,500 -720 Descending Atlanta Center
07:52PM 33.5958 -84.2783 69° East 549 632 29,500 -840 Descending Atlanta Center
07:53PM 33.6503 -84.1061 69° East 543 625 28,900 -300 Descending Atlanta Center
07:54PM 33.7044 -83.9414 68° East 538 619 28,900 -60 Level Atlanta Center
07:55PM 33.7583 -83.7714 69° East 538 619 28,800 -600 Descending Atlanta Center
07:56PM 33.8122 -83.5989 69° East 538 619 27,800 -960 Descending Atlanta Center
07:57PM 33.8617 -83.4333 70° East 532 612 26,900 -720 Descending Atlanta Center
07:58PM 33.9256 -83.2778 64° Northeast 521 600 26,400 -720 Descending Atlanta Center
07:59PM 33.9975 -83.1342 59° Northeast 501 577 25,500 -780 Descending Atlanta Center
08:00PM 34.0611 -82.9906 62° Northeast 488 562 24,900 -420 Descending Atlanta Center
08:01PM 34.1122 -82.8697 63° Northeast 471 542 24,700 -540 Descending Atlanta Center
08:02PM 34.1878 -82.7153 59° Northeast 476 548 23,900 -420 Descending Atlanta Center
08:03PM 34.2492 -82.5939 59° Northeast 465 535 23,900  Level Atlanta Center
08:04PM 34.3142 -82.4569 60° Northeast 465 535 23,900  Level Atlanta Center
08:05PM 34.3831 -82.3094 60° Northeast 482 555 23,900 -1,200 Level Atlanta Center
08:06PM 34.4497 -82.1622 61° Northeast 489 563 21,500 -2,580 Descending Atlanta Center
08:07PM 34.5144 -82.0194 61° Northeast 489 563 18,800 -2,700 Descending Atlanta Center
08:08PM 34.5767 -81.8842 61° Northeast 476 548 16,100 -2,880 Descending Atlanta Center
08:09PM 34.6453 -81.7436 59° Northeast 457 526 13,100 -3,120 Descending Atlanta Center
08:09PM 34.6631 -81.6978 65° Northeast 433 498 12,100 -2,280 Descending Atlanta Center
08:09PM 34.6833 -81.6617 56° Northeast 427 491 11,700 -900 Descending Atlanta Center
08:10PM 34.6992 -81.6208 65° Northeast 425 489 11,500 -840 Descending Atlanta Center
08:10PM 34.7311 -81.5492 62° Northeast 362 417 10,900 -540 Descending Atlanta Center
08:11PM 34.7533 -81.5183 49° Northeast 377 434 11,000 60 Climbing Atlanta Center
08:11PM 34.7919 -81.4689 46° Northeast 304 350 11,000 -720 Level Atlanta Center
08:12PM 34.8058 -81.4306 66° East 326 375 10,300 -1,020 Descending Atlanta Center
08:12PM 34.8172 -81.3694 77° East 303 349 10,000 -420 Descending Atlanta Center
08:13PM 34.8228 -81.3417 76° East 302 348 9,900 -720 Descending Atlanta Center
08:13PM 34.8358 -81.2778 76° East 261 300 9,300 -900 Descending Atlanta Center
08:14PM 34.8375 -81.2550 85° East 277 319 9,000 -1,320 Descending Atlanta Center
08:14PM 34.8547 -81.1886 72° East 248 285 8,000 -1,320 Descending Atlanta Center
08:15PM 34.8564 -81.1733 82° East 253 291 7,700 -1,260 Descending Atlanta Center
08:15PM 34.8650 -81.0972 82° East 243 280 6,600 -1,200 Descending Atlanta Center
08:17PM 34.8672 -81.0136 88° East 231 266 5,300 -840 Descending Atlanta Center
08:18PM 34.9036 -80.9642 48° Northeast 227 261 5,000 -180 Descending Atlanta Center
08:19PM 34.9719 -80.9489 10° North 204 235 5,000 -420 Level Atlanta Center
08:19PM 35.0203 -80.9547 354° North 218 251 4,200 -1,080 Descending Atlanta Center
08:20PM 35.0808 -80.9600 356° North 191 220 3,100 -1,140 Descending Atlanta Center